Dededo, Guam
Current Conditions -  °F | °C
As of 10:54 AM on Tuesday 27 Jan 2015 (Local Time) from PGUM Reporting Station
Scattered Clouds Scattered Clouds  
Wind Chill: 86°   Ceiling: Unl
Heat Index: 93°   Visibility: 10mi
Dew Point: 73°   Wind: 13mph
Humidity: 65%   Direction: 90°E
Pressure: 29.91"   Gusts: NA
Location:  13.51°N, 144.84°E
Report Text: PGUM 270054Z 09011KT 10SM SCT024 30/23 A2991 RMK AO2 SLP119 P0001 T03000228
Loading
Personal Weather Stations






























Interactive Weather Map New forecast layout! Learn more

10-Day Weather Forecast

Advertisements
Track Severe Weather on mobile